Orbital elements of FENGYUN 1C DEB
| Launched | 9 May 1999 |
| Flight ended | – |
| Launch site | Taiyuan Space Center, PRC |
| Owner | People's Republic of China |
| NORAD ID | 31527 |
| Date fetched |
Epoch osculation |
Inc. [°] |
Ecc. | RA asc node [hr] |
Arg Peri. [°] |
Mean anom [°] |
Mean motion [rev/day] |
Abs. mag |
| Date fetched |
Epoch osculation |
Inc. [°] |
Ecc. | RA asc node [hr] |
Arg Peri. [°] |
Mean anom [°] |
Mean motion [rev/day] |
Abs. mag |
| 2026 May 09 17:57 | 2026 May 02 09:05:53 | 98.9120 | 0.04479 | 18.1897 | 317.2646 | 39.4443 | 13.23536 | – |
| 2026 May 08 17:57 | 2026 May 02 09:05:53 | 98.9120 | 0.04479 | 18.1897 | 317.2646 | 39.4443 | 13.23536 | – |
| 2026 May 07 17:58 | 2026 May 02 09:05:53 | 98.9120 | 0.04479 | 18.1897 | 317.2646 | 39.4443 | 13.23536 | – |
| 2026 May 06 17:57 | 2026 May 02 09:05:53 | 98.9120 | 0.04479 | 18.1897 | 317.2646 | 39.4443 | 13.23536 | – |
| 2026 May 05 17:57 | 2026 May 02 09:05:53 | 98.9120 | 0.04479 | 18.1897 | 317.2646 | 39.4443 | 13.23536 | – |
| 2026 May 04 17:57 | 2026 Apr 27 16:37:05 | 98.9107 | 0.04480 | 17.9216 | 328.7260 | 39.4443 | 13.23536 | – |
| 2026 May 03 17:57 | 2026 Apr 27 16:37:05 | 98.9107 | 0.04480 | 17.9216 | 328.7260 | 39.4443 | 13.23536 | – |
| 2026 May 02 17:57 | 2026 Apr 27 16:37:05 | 98.9107 | 0.04480 | 17.9216 | 328.7260 | 39.4443 | 13.23536 | – |
| 2026 May 01 17:56 | 2026 Apr 27 16:37:05 | 98.9107 | 0.04480 | 17.9216 | 328.7260 | 39.4443 | 13.23536 | – |
| 2026 Apr 30 17:56 | 2026 Apr 27 16:37:05 | 98.9107 | 0.04480 | 17.9216 | 328.7260 | 39.4443 | 13.23536 | – |
| 2026 Apr 29 17:57 | 2026 Apr 22 16:52:54 | 98.9096 | 0.04481 | 17.6361 | 340.9313 | 39.4443 | 13.23536 | – |
| 2026 Apr 28 17:56 | 2026 Apr 22 16:52:54 | 98.9096 | 0.04481 | 17.6361 | 340.9313 | 39.4443 | 13.23536 | – |
| 2026 Apr 27 17:58 | 2026 Apr 22 16:52:54 | 98.9096 | 0.04481 | 17.6361 | 340.9313 | 39.4443 | 13.23536 | – |
| 2026 Apr 26 17:58 | 2026 Apr 22 16:52:54 | 98.9096 | 0.04481 | 17.6361 | 340.9313 | 39.4443 | 13.23536 | – |
| 2026 Apr 25 17:58 | 2026 Apr 22 16:52:54 | 98.9096 | 0.04481 | 17.6361 | 340.9313 | 39.4443 | 13.23536 | – |
| 2026 Apr 24 17:59 | 2026 Apr 22 16:52:54 | 98.9096 | 0.04481 | 17.6361 | 340.9313 | 39.4443 | 13.23536 | – |
| 2026 Apr 23 17:57 | 2026 Apr 18 16:43:47 | 98.9106 | 0.04482 | 17.4071 | 350.7095 | 39.4443 | 13.23536 | – |
| 2026 Apr 22 17:57 | 2026 Apr 18 16:43:47 | 98.9106 | 0.04482 | 17.4071 | 350.7095 | 39.4443 | 13.23536 | – |
| 2026 Apr 21 17:57 | 2026 Apr 18 16:43:47 | 98.9106 | 0.04482 | 17.4071 | 350.7095 | 39.4443 | 13.23536 | – |
| 2026 Apr 20 17:57 | 2026 Apr 18 16:43:47 | 98.9106 | 0.04482 | 17.4071 | 350.7095 | 39.4443 | 13.23536 | – |
| 2026 Apr 19 17:58 | 2026 Apr 18 16:43:47 | 98.9106 | 0.04482 | 17.4071 | 350.7095 | 39.4443 | 13.23536 | – |
| 2026 Apr 18 17:56 | 2026 Apr 12 08:20:17 | 98.9091 | 0.04484 | 17.0439 | 6.2323 | 39.4443 | 13.23536 | – |
| 2026 Apr 16 17:57 | 2026 Apr 12 08:20:17 | 98.9091 | 0.04484 | 17.0439 | 6.2323 | 39.4443 | 13.23536 | – |
| 2026 Apr 14 17:57 | 2026 Apr 12 08:20:17 | 98.9091 | 0.04484 | 17.0439 | 6.2323 | 39.4443 | 13.23536 | – |
| 2026 Apr 13 17:57 | 2026 Apr 12 08:20:17 | 98.9091 | 0.04484 | 17.0439 | 6.2323 | 39.4443 | 13.23536 | – |
| 2026 Apr 12 17:57 | 2026 Apr 05 20:19:02 | 98.9078 | 0.04487 | 16.6722 | 22.1072 | 39.4443 | 13.23536 | – |